createdAt,value
2022-09-30T00:01:35.610Z,2.10
2022-09-30T00:04:04.073Z,4.67
2022-09-30T00:06:35.251Z,2.23
2022-09-30T00:09:03.891Z,2.03
2022-09-30T00:11:35.005Z,3.90
2022-09-30T00:14:03.924Z,2.03
2022-09-30T00:16:34.112Z,2.63
2022-09-30T00:19:03.852Z,2.03
2022-09-30T00:21:34.583Z,2.20
2022-09-30T00:24:03.070Z,1.70
2022-09-30T00:26:31.408Z,1.30
2022-09-30T00:29:01.063Z,2.77
2022-09-30T00:31:31.895Z,1.40
2022-09-30T00:34:09.223Z,1.53
2022-09-30T00:36:43.640Z,1.30
2022-09-30T00:39:14.758Z,1.40
2022-09-30T00:41:43.426Z,2.00
2022-09-30T00:44:46.561Z,1.50
2022-09-30T00:47:34.709Z,1.60
2022-09-30T00:50:07.761Z,1.50
2022-09-30T00:52:37.895Z,1.87
2022-09-30T00:55:11.127Z,2.30
2022-09-30T00:57:39.123Z,1.60
2022-09-30T01:00:09.224Z,1.47
2022-09-30T01:02:37.569Z,0.93
2022-09-30T01:05:06.210Z,1.33
2022-09-30T01:07:36.429Z,1.50
2022-09-30T01:10:06.495Z,1.63
2022-09-30T01:12:34.637Z,2.40
2022-09-30T01:15:03.518Z,1.13
2022-09-30T01:17:45.199Z,1.20
2022-09-30T01:20:53.238Z,1.27
2022-09-30T01:23:58.008Z,1.63
2022-09-30T01:27:11.816Z,0.80
2022-09-30T01:30:15.607Z,1.13
2022-09-30T01:33:06.100Z,0.90
2022-09-30T01:35:48.340Z,2.03
2022-09-30T01:38:29.408Z,1.00
2022-09-30T01:41:05.939Z,1.63
2022-09-30T01:43:44.790Z,1.33
2022-09-30T01:46:24.409Z,1.40
2022-09-30T01:49:00.972Z,2.87
2022-09-30T01:51:36.493Z,1.37
2022-09-30T01:54:11.043Z,1.77
2022-09-30T01:56:45.393Z,2.20
2022-09-30T01:59:18.316Z,1.00
2022-09-30T02:01:53.226Z,1.57
2022-09-30T02:04:29.602Z,1.10
2022-09-30T02:07:02.312Z,1.27
2022-09-30T02:09:33.798Z,2.20
2022-09-30T02:12:06.498Z,1.60
2022-09-30T02:14:41.283Z,1.60
2022-09-30T02:17:16.139Z,2.67
2022-09-30T02:19:47.903Z,1.50
2022-09-30T02:22:19.875Z,1.83
2022-09-30T02:24:52.973Z,2.93
2022-09-30T02:27:28.296Z,1.83
2022-09-30T02:30:00.159Z,2.77
2022-09-30T02:32:33.066Z,2.37
2022-09-30T02:35:07.036Z,5.23
2022-09-30T02:37:39.108Z,3.20
2022-09-30T02:40:12.546Z,2.27
2022-09-30T02:42:42.035Z,2.57
2022-09-30T02:45:13.147Z,1.63
2022-09-30T02:47:53.660Z,1.70
2022-09-30T02:50:32.484Z,2.00
2022-09-30T02:53:15.317Z,2.30
2022-09-30T02:56:00.164Z,2.33
2022-09-30T02:58:29.429Z,1.27
2022-09-30T03:00:58.883Z,1.43
2022-09-30T03:03:31.421Z,1.80
2022-09-30T03:06:00.710Z,2.17
2022-09-30T03:08:28.587Z,3.13
2022-09-30T03:10:56.605Z,2.77
2022-09-30T03:13:50.821Z,4.07
2022-09-30T03:16:29.139Z,1.17
2022-09-30T03:19:19.192Z,3.20
2022-09-30T03:22:05.172Z,1.97
2022-09-30T03:24:54.780Z,1.43
2022-09-30T03:27:32.552Z,2.27
2022-09-30T03:30:05.367Z,1.13
2022-09-30T03:32:48.853Z,1.37
2022-09-30T03:35:22.778Z,1.03
2022-09-30T03:38:02.513Z,2.53
2022-09-30T03:40:38.982Z,1.50
2022-09-30T03:43:13.852Z,1.77
2022-09-30T03:45:48.066Z,1.50
2022-09-30T03:48:17.722Z,2.57
2022-09-30T03:50:46.357Z,1.53
2022-09-30T03:53:16.161Z,2.97
2022-09-30T03:55:50.272Z,5.33
2022-09-30T03:58:20.091Z,2.97
2022-09-30T04:00:50.847Z,2.13
2022-09-30T04:03:19.692Z,4.40
2022-09-30T04:05:47.880Z,3.47
2022-09-30T04:08:17.575Z,6.63
2022-09-30T04:10:45.546Z,1.87
2022-09-30T04:13:13.725Z,2.37
2022-09-30T04:15:41.800Z,4.73
2022-09-30T04:18:09.735Z,4.40
2022-09-30T04:20:39.565Z,5.33
2022-09-30T04:23:07.507Z,5.63
2022-09-30T04:25:36.715Z,4.83
2022-09-30T04:28:04.597Z,2.60
2022-09-30T04:30:33.726Z,3.20
2022-09-30T04:33:01.783Z,3.63
2022-09-30T04:35:30.129Z,2.93
2022-09-30T04:37:58.064Z,3.40
2022-09-30T04:40:26.224Z,2.00
2022-09-30T04:42:58.272Z,4.40
2022-09-30T04:45:26.541Z,3.67
2022-09-30T04:47:54.685Z,4.67
2022-09-30T04:50:22.909Z,3.00
2022-09-30T04:52:50.754Z,2.30
2022-09-30T04:55:18.618Z,4.23
2022-09-30T04:57:46.724Z,2.73
2022-09-30T05:00:16.059Z,5.17
2022-09-30T05:02:45.215Z,3.30
2022-09-30T05:05:13.080Z,3.40
2022-09-30T05:07:40.934Z,4.37
2022-09-30T05:10:11.179Z,3.90
2022-09-30T05:12:39.044Z,2.13
2022-09-30T05:15:14.731Z,3.07
2022-09-30T05:17:44.141Z,2.60
2022-09-30T05:20:12.209Z,2.50
2022-09-30T05:22:40.040Z,3.47
2022-09-30T05:25:08.968Z,2.73
2022-09-30T05:27:36.846Z,4.50
2022-09-30T05:30:06.668Z,3.03
2022-09-30T05:32:34.601Z,3.30
2022-09-30T05:35:04.633Z,3.70
2022-09-30T05:37:32.506Z,4.13
2022-09-30T05:40:01.118Z,5.33
2022-09-30T05:42:29.026Z,4.27
2022-09-30T05:44:56.996Z,4.27
2022-09-30T05:47:25.153Z,2.87
2022-09-30T05:49:55.967Z,5.83
2022-09-30T05:52:25.671Z,2.33
2022-09-30T05:54:54.228Z,1.80
2022-09-30T05:57:22.120Z,2.57
2022-09-30T05:59:50.991Z,4.37
2022-09-30T06:02:19.078Z,3.47
2022-09-30T06:04:47.065Z,3.93
2022-09-30T06:07:15.060Z,4.73
2022-09-30T06:09:44.344Z,2.80
2022-09-30T06:12:12.251Z,2.83
2022-09-30T06:14:40.124Z,3.63
2022-09-30T06:17:08.638Z,3.33
2022-09-30T06:19:36.817Z,4.13
2022-09-30T06:22:04.793Z,4.50
2022-09-30T06:24:33.224Z,3.80
2022-09-30T06:27:02.477Z,1.93
2022-09-30T06:29:30.397Z,5.40
2022-09-30T06:31:58.319Z,4.93
2022-09-30T06:34:26.523Z,3.50
2022-09-30T06:36:54.704Z,4.33
2022-09-30T06:39:23.328Z,5.17
2022-09-30T06:41:51.261Z,4.73
2022-09-30T06:44:20.467Z,4.70
2022-09-30T06:46:53.832Z,5.13
2022-09-30T06:49:23.934Z,4.50
2022-09-30T06:51:52.256Z,3.97
2022-09-30T06:54:21.928Z,5.33
2022-09-30T06:56:53.022Z,4.10
2022-09-30T06:59:22.991Z,7.10
2022-09-30T07:01:51.044Z,2.77
2022-09-30T07:04:19.053Z,4.33
2022-09-30T07:06:46.897Z,6.87
2022-09-30T07:09:15.001Z,3.90
2022-09-30T07:11:43.676Z,5.57
2022-09-30T07:14:13.429Z,4.80
2022-09-30T07:16:44.750Z,4.63
2022-09-30T07:19:13.162Z,5.37
2022-09-30T07:21:41.008Z,3.93
2022-09-30T07:24:09.327Z,6.03
2022-09-30T07:26:37.154Z,4.25
2022-09-30T07:29:07.206Z,4.47
2022-09-30T07:31:36.054Z,4.05
2022-09-30T07:34:08.212Z,6.05
2022-09-30T07:36:38.260Z,3.90
2022-09-30T07:39:09.240Z,5.57
2022-09-30T07:41:40.082Z,4.35
2022-09-30T07:44:12.288Z,4.45
2022-09-30T07:46:40.584Z,4.53
2022-09-30T07:49:14.586Z,7.32
2022-09-30T07:51:45.464Z,5.80
2022-09-30T07:54:16.261Z,3.90
2022-09-30T07:57:09.228Z,7.28
2022-09-30T07:59:34.670Z,5.07
2022-09-30T08:02:03.039Z,3.90
2022-09-30T08:04:32.692Z,4.72
2022-09-30T08:07:02.533Z,4.03
2022-09-30T08:09:31.829Z,4.50
2022-09-30T08:11:59.877Z,3.55
2022-09-30T08:14:28.940Z,3.67
2022-09-30T08:16:58.459Z,4.90
2022-09-30T08:19:27.842Z,6.38
2022-09-30T08:21:58.029Z,3.33
2022-09-30T08:24:27.690Z,4.57
2022-09-30T08:26:56.144Z,5.93
2022-09-30T08:32:12.010Z,2.35
2022-09-30T08:34:39.933Z,2.90
2022-09-30T08:37:10.204Z,13.93
2022-09-30T08:39:38.441Z,15.55
2022-09-30T08:42:37.174Z,13.55
2022-09-30T08:45:17.036Z,11.10
2022-09-30T08:47:51.088Z,14.15
2022-09-30T08:50:30.345Z,14.88
2022-09-30T08:53:04.116Z,15.55
2022-09-30T08:55:39.626Z,13.90
2022-09-30T08:58:16.708Z,13.18
2022-09-30T09:00:44.818Z,11.77
2022-09-30T09:03:15.401Z,11.07
2022-09-30T09:05:54.360Z,9.57
2022-09-30T09:08:30.990Z,13.57
2022-09-30T09:11:09.090Z,15.50
2022-09-30T09:13:46.278Z,17.95
2022-09-30T09:16:22.368Z,17.92
2022-09-30T09:18:59.588Z,18.30
2022-09-30T09:21:37.679Z,17.17
2022-09-30T09:24:15.880Z,18.83
2022-09-30T09:26:43.815Z,18.58
2022-09-30T09:29:27.145Z,16.88
2022-09-30T09:31:55.689Z,16.73
2022-09-30T09:34:25.590Z,19.13
2022-09-30T09:37:09.959Z,14.95
2022-09-30T09:40:00.358Z,15.55
2022-09-30T09:42:49.004Z,12.32
2022-09-30T09:45:28.844Z,16.88
2022-09-30T09:47:58.043Z,14.88
2022-09-30T09:50:36.001Z,14.43
2022-09-30T09:53:26.186Z,14.70
2022-09-30T09:56:00.081Z,11.18
2022-09-30T09:58:28.076Z,12.38
2022-09-30T10:01:31.888Z,14.18
2022-09-30T10:04:11.261Z,12.43
2022-09-30T10:06:48.431Z,11.38
2022-09-30T10:09:37.330Z,11.60
2022-09-30T10:12:28.877Z,9.32
2022-09-30T10:15:01.024Z,10.25
2022-09-30T10:17:31.489Z,9.45
2022-09-30T10:20:04.312Z,9.30
2022-09-30T10:22:33.348Z,8.60
2022-09-30T10:25:20.065Z,10.38
2022-09-30T10:27:55.829Z,8.88
2022-09-30T10:30:44.671Z,7.13
2022-09-30T10:33:32.090Z,6.93
2022-09-30T10:36:08.493Z,7.70
2022-09-30T10:41:11.204Z,6.28
2022-09-30T10:43:44.895Z,8.52
2022-09-30T10:46:25.787Z,4.63
2022-09-30T10:48:56.127Z,5.03
2022-09-30T10:51:28.040Z,5.63
2022-09-30T10:53:57.443Z,4.15
2022-09-30T10:56:45.244Z,6.15
2022-09-30T10:59:34.042Z,4.95
2022-09-30T11:05:03.685Z,4.68
2022-09-30T11:07:38.092Z,3.70
2022-09-30T11:10:10.043Z,4.25
2022-09-30T11:12:44.687Z,4.13
2022-09-30T11:15:21.461Z,5.90
2022-09-30T11:17:57.651Z,4.85
2022-09-30T11:20:30.959Z,4.70
2022-09-30T11:23:05.319Z,5.60
2022-09-30T11:25:42.208Z,7.70
2022-09-30T11:28:33.263Z,5.28
2022-09-30T11:31:14.723Z,6.22
2022-09-30T11:33:56.425Z,6.97
2022-09-30T11:36:32.035Z,6.18
2022-09-30T11:39:18.050Z,5.70
2022-09-30T11:41:52.056Z,4.43
2022-09-30T11:44:30.182Z,6.53
2022-09-30T11:47:23.879Z,6.82
2022-09-30T11:50:09.200Z,4.22
2022-09-30T11:52:47.102Z,7.47
2022-09-30T11:55:38.186Z,7.57
2022-09-30T11:58:29.038Z,7.82
2022-09-30T12:01:06.476Z,3.80
2022-09-30T12:03:41.329Z,4.30
2022-09-30T12:06:16.169Z,6.75
2022-09-30T12:08:50.200Z,6.68
2022-09-30T12:11:22.401Z,4.40
2022-09-30T12:13:55.359Z,3.90
2022-09-30T12:16:28.629Z,3.42
2022-09-30T12:19:03.839Z,3.28
2022-09-30T12:21:36.256Z,5.22
2022-09-30T12:24:11.455Z,3.60
2022-09-30T12:26:41.580Z,3.60
2022-09-30T12:29:34.084Z,4.85
2022-09-30T12:32:20.483Z,3.67
2022-09-30T12:35:04.268Z,4.15
2022-09-30T12:38:01.281Z,6.72
2022-09-30T12:40:52.796Z,4.60
2022-09-30T12:43:59.984Z,5.68
2022-09-30T12:46:44.142Z,3.70
2022-09-30T12:49:17.903Z,3.67
2022-09-30T12:51:51.745Z,5.22
2022-09-30T12:54:23.403Z,7.88
2022-09-30T12:56:59.322Z,6.00
2022-09-30T12:59:31.417Z,4.57
2022-09-30T13:02:01.463Z,5.47
2022-09-30T13:04:35.551Z,3.33
2022-09-30T13:07:21.823Z,3.20
2022-09-30T13:10:24.637Z,4.40
2022-09-30T13:13:17.930Z,5.38
2022-09-30T13:15:46.730Z,4.50
2022-09-30T13:18:52.028Z,3.38
2022-09-30T13:21:25.000Z,4.18
2022-09-30T13:23:55.769Z,3.53
2022-09-30T13:26:42.149Z,4.40
2022-09-30T13:29:50.382Z,5.50
2022-09-30T13:32:37.781Z,4.70
2022-09-30T13:35:33.389Z,4.22
2022-09-30T13:38:19.032Z,3.33
2022-09-30T13:41:06.745Z,4.35
2022-09-30T13:43:41.480Z,3.03
2022-09-30T13:46:18.669Z,3.80
2022-09-30T13:48:53.073Z,2.67
2022-09-30T13:51:24.092Z,2.85
2022-09-30T13:53:55.337Z,3.42
2022-09-30T13:56:29.060Z,6.07
2022-09-30T13:59:24.210Z,4.35
2022-09-30T14:02:30.999Z,2.58
2022-09-30T14:05:40.275Z,4.63
2022-09-30T14:08:31.766Z,2.88
2022-09-30T14:11:16.133Z,2.20
2022-09-30T14:13:57.916Z,3.92
2022-09-30T14:16:42.077Z,4.45
2022-09-30T14:19:30.376Z,5.30
2022-09-30T14:22:03.369Z,4.03
2022-09-30T14:24:37.925Z,2.83
2022-09-30T14:27:42.281Z,4.32
2022-09-30T14:30:16.220Z,3.85
2022-09-30T14:32:47.525Z,4.35
2022-09-30T14:35:24.529Z,2.50
2022-09-30T14:37:57.013Z,2.63
2022-09-30T14:40:28.873Z,2.78
2022-09-30T14:43:02.830Z,5.80
2022-09-30T14:45:35.099Z,6.28
2022-09-30T14:48:08.336Z,4.43
2022-09-30T14:50:42.924Z,3.72
2022-09-30T14:53:26.043Z,3.42
2022-09-30T14:55:54.087Z,4.22
2022-09-30T14:58:28.547Z,6.68
2022-09-30T15:01:04.535Z,4.53
2022-09-30T15:03:35.354Z,6.53
2022-09-30T15:06:05.290Z,7.47
2022-09-30T15:08:33.224Z,10.98
2022-09-30T15:11:01.133Z,15.93
2022-09-30T15:13:32.281Z,7.85
2022-09-30T15:16:01.960Z,5.45
2022-09-30T15:18:36.358Z,7.07
2022-09-30T15:21:12.136Z,5.50
2022-09-30T15:23:43.050Z,4.90
2022-09-30T15:26:13.070Z,3.85
2022-09-30T15:28:41.054Z,5.28
2022-09-30T15:31:22.635Z,5.05
2022-09-30T15:33:50.700Z,4.82
2022-09-30T15:36:19.878Z,4.50
2022-09-30T15:38:51.235Z,7.45
2022-09-30T15:41:19.403Z,5.97
2022-09-30T15:43:51.710Z,6.28
2022-09-30T15:46:31.939Z,8.40
2022-09-30T15:49:02.294Z,7.68
2022-09-30T15:51:39.239Z,4.60
2022-09-30T15:54:32.999Z,8.43
2022-09-30T15:57:03.461Z,10.15
2022-09-30T15:59:59.058Z,8.80
2022-09-30T16:02:29.666Z,8.45
2022-09-30T16:05:00.292Z,8.75
2022-09-30T16:07:29.002Z,8.85
2022-09-30T16:09:59.325Z,8.32
2022-09-30T16:12:31.036Z,6.75
2022-09-30T16:15:03.143Z,11.40
2022-09-30T16:17:34.240Z,8.90
2022-09-30T16:20:06.539Z,5.32
2022-09-30T16:22:37.695Z,4.13
2022-09-30T16:25:17.932Z,4.55
2022-09-30T16:27:45.881Z,4.18
2022-09-30T16:30:15.876Z,8.25
2022-09-30T16:32:48.782Z,4.80
2022-09-30T16:35:20.075Z,8.27
2022-09-30T16:37:48.437Z,7.10
2022-09-30T16:40:23.091Z,10.40
2022-09-30T16:42:51.532Z,12.35
2022-09-30T16:45:19.381Z,7.20
2022-09-30T16:47:49.689Z,10.40
2022-09-30T16:50:32.282Z,6.53
2022-09-30T16:53:00.175Z,8.38
2022-09-30T16:55:28.839Z,10.68
2022-09-30T16:57:58.137Z,7.47
2022-09-30T17:00:26.712Z,8.95
2022-09-30T17:02:56.377Z,5.50
2022-09-30T17:05:25.969Z,5.47
2022-09-30T17:07:55.268Z,4.75
2022-09-30T17:10:25.481Z,6.80
2022-09-30T17:12:53.592Z,6.30
2022-09-30T17:15:22.419Z,7.68
2022-09-30T17:17:52.829Z,6.70
2022-09-30T17:20:22.859Z,5.40
2022-09-30T17:22:50.805Z,5.63
2022-09-30T17:25:19.515Z,4.82
2022-09-30T17:27:50.053Z,6.15
2022-09-30T17:30:18.343Z,4.55
2022-09-30T17:32:46.574Z,10.07
2022-09-30T17:35:15.066Z,7.13
2022-09-30T17:37:46.458Z,5.70
2022-09-30T17:40:32.913Z,8.07
2022-09-30T17:43:11.083Z,6.05
2022-09-30T17:45:43.365Z,6.07
2022-09-30T17:48:12.490Z,7.32
2022-09-30T17:50:42.353Z,9.40
2022-09-30T17:53:14.086Z,7.10
2022-09-30T17:55:42.121Z,12.30
2022-09-30T17:58:11.460Z,9.55
2022-09-30T18:00:39.573Z,18.23
2022-09-30T18:03:09.294Z,13.10
2022-09-30T18:05:38.036Z,13.35
2022-09-30T18:08:06.570Z,12.25
2022-09-30T18:10:38.671Z,11.35
2022-09-30T18:13:06.837Z,11.00
2022-09-30T18:15:35.192Z,11.80
2022-09-30T18:18:03.032Z,13.02
2022-09-30T18:20:30.871Z,11.73
2022-09-30T18:22:58.714Z,15.73
2022-09-30T18:25:26.544Z,14.38
2022-09-30T18:27:59.833Z,16.27
2022-09-30T18:30:28.024Z,52.90
2022-09-30T18:32:59.058Z,17.37
2022-09-30T18:35:27.022Z,14.57
2022-09-30T18:37:54.992Z,15.60
2022-09-30T18:40:25.836Z,20.27
2022-09-30T18:42:58.471Z,21.23
2022-09-30T18:45:26.580Z,18.83
2022-09-30T18:47:55.908Z,14.57
2022-09-30T18:50:24.871Z,13.13
2022-09-30T18:52:53.438Z,14.33
2022-09-30T18:55:21.660Z,11.13
2022-09-30T18:57:50.480Z,12.47
2022-09-30T19:00:20.657Z,11.77
2022-09-30T19:02:48.547Z,15.40
2022-09-30T19:05:17.903Z,12.63
2022-09-30T19:07:45.723Z,15.53
2022-09-30T19:10:13.925Z,11.50
2022-09-30T19:12:44.470Z,15.67
2022-09-30T19:15:16.060Z,13.23
2022-09-30T19:17:46.090Z,18.00
2022-09-30T19:20:15.213Z,11.30
2022-09-30T19:22:43.432Z,18.17
2022-09-30T19:25:12.709Z,15.97
2022-09-30T19:27:42.037Z,15.90
2022-09-30T19:30:12.276Z,18.20
2022-09-30T19:32:40.747Z,16.00
2022-09-30T19:35:13.572Z,18.63
2022-09-30T19:37:56.961Z,14.00
2022-09-30T19:43:04.851Z,14.93
2022-09-30T19:45:32.802Z,14.00
2022-09-30T19:48:01.335Z,13.50
2022-09-30T19:50:31.095Z,14.03
2022-09-30T19:52:59.564Z,19.87
2022-09-30T19:55:27.478Z,16.03
2022-09-30T19:57:55.489Z,13.90
2022-09-30T20:00:23.347Z,15.77
2022-09-30T20:02:52.687Z,17.80
2022-09-30T20:05:21.568Z,20.97
2022-09-30T20:07:51.604Z,17.87
2022-09-30T20:10:19.835Z,14.13
2022-09-30T20:12:47.696Z,12.77
2022-09-30T20:15:33.259Z,15.63
2022-09-30T20:18:01.097Z,15.57
2022-09-30T20:20:40.132Z,18.73
2022-09-30T20:23:09.379Z,14.03
2022-09-30T20:25:38.196Z,13.93
2022-09-30T20:28:06.975Z,17.83
2022-09-30T20:30:38.352Z,18.97
2022-09-30T20:33:06.313Z,12.67
2022-09-30T20:35:36.646Z,11.97
2022-09-30T20:38:05.260Z,12.33
2022-09-30T20:40:35.656Z,10.63
2022-09-30T20:43:04.109Z,11.77
2022-09-30T20:45:32.047Z,9.63
2022-09-30T20:47:59.952Z,10.40
2022-09-30T20:50:36.691Z,11.47
2022-09-30T20:53:07.167Z,12.50
2022-09-30T20:55:38.496Z,9.00
2022-09-30T20:58:08.521Z,12.07
2022-09-30T21:00:39.973Z,12.33
2022-09-30T21:03:09.893Z,11.13
2022-09-30T21:05:38.941Z,11.03
2022-09-30T21:08:07.315Z,15.13
2022-09-30T21:10:38.769Z,10.77
2022-09-30T21:13:11.416Z,11.43
2022-09-30T21:15:40.108Z,8.83
2022-09-30T21:18:08.317Z,10.90
2022-09-30T21:20:36.370Z,10.50
2022-09-30T21:23:04.458Z,13.27
2022-09-30T21:25:33.025Z,10.40
2022-09-30T21:28:03.498Z,13.03
2022-09-30T21:30:31.434Z,12.73
2022-09-30T21:32:59.287Z,13.63
2022-09-30T21:35:27.129Z,16.00
2022-09-30T21:37:54.945Z,13.60
2022-09-30T21:40:22.775Z,12.73
2022-09-30T21:42:50.621Z,14.20
2022-09-30T21:45:20.170Z,16.57
2022-09-30T21:47:48.116Z,15.67
2022-09-30T21:50:16.118Z,11.87
2022-09-30T21:52:43.992Z,14.90
2022-09-30T21:55:13.348Z,11.90
2022-09-30T21:57:41.172Z,13.93
2022-09-30T22:00:10.197Z,10.23
2022-09-30T22:02:40.715Z,12.13
2022-09-30T22:05:09.533Z,12.90
2022-09-30T22:07:38.863Z,9.43
2022-09-30T22:10:09.049Z,11.57
2022-09-30T22:12:36.859Z,14.20
2022-09-30T22:15:04.989Z,15.60
2022-09-30T22:17:32.824Z,9.37
2022-09-30T22:20:02.453Z,9.43
2022-09-30T22:22:30.295Z,11.97
2022-09-30T22:24:58.120Z,9.13
2022-09-30T22:27:25.954Z,9.57
2022-09-30T22:29:53.913Z,11.70
2022-09-30T22:32:21.751Z,10.27
2022-09-30T22:35:07.140Z,8.00
2022-09-30T22:38:02.235Z,7.20
2022-09-30T22:40:30.096Z,11.13
2022-09-30T22:42:58.169Z,10.20
2022-09-30T22:45:26.454Z,9.20
2022-09-30T22:47:55.344Z,10.03
2022-09-30T22:50:25.189Z,7.17
2022-09-30T22:52:54.393Z,9.30
2022-09-30T22:55:22.480Z,8.53
2022-09-30T22:57:50.283Z,8.43
2022-09-30T23:00:18.195Z,9.43
2022-09-30T23:02:46.072Z,8.20
2022-09-30T23:05:15.425Z,8.83
2022-09-30T23:07:43.247Z,10.40
2022-09-30T23:10:12.725Z,12.30
2022-09-30T23:12:40.971Z,7.40
2022-09-30T23:15:09.368Z,9.20
2022-09-30T23:17:37.214Z,8.20
2022-09-30T23:20:05.776Z,10.20
2022-09-30T23:22:33.629Z,10.47
2022-09-30T23:25:02.508Z,7.87
2022-09-30T23:27:31.699Z,7.87
2022-09-30T23:29:59.601Z,8.30
2022-09-30T23:32:28.092Z,8.73
2022-09-30T23:34:58.092Z,11.27
2022-09-30T23:37:26.028Z,13.63
2022-09-30T23:39:53.833Z,10.07
2022-09-30T23:42:21.641Z,8.13
2022-09-30T23:44:50.960Z,11.33
2022-09-30T23:47:18.780Z,8.00
2022-09-30T23:49:46.728Z,11.43
2022-09-30T23:52:15.385Z,10.93
2022-09-30T23:54:43.858Z,9.40
2022-09-30T23:57:12.199Z,10.90
2022-09-30T23:59:40.156Z,8.77
